createdAt,value
2018-07-19T00:03:08.828Z,60.27
2018-07-19T00:06:14.837Z,60.14
2018-07-19T00:09:39.020Z,60.32
2018-07-19T00:12:42.854Z,61.19
2018-07-19T00:19:04.252Z,61.97
2018-07-19T00:27:11.547Z,61.67
2018-07-19T00:56:37.143Z,62.24
2018-07-19T01:00:06.730Z,62.13
2018-07-19T01:10:33.139Z,62.28
2018-07-19T01:14:16.276Z,62.68
2018-07-19T01:20:58.113Z,63.27
2018-07-19T01:24:29.473Z,63.17
2018-07-19T01:27:54.545Z,62.86
2018-07-19T01:38:29.738Z,62.44
2018-07-19T01:49:49.415Z,63.63
2018-07-19T01:53:51.833Z,62.87
2018-07-19T02:00:34.644Z,64.41
2018-07-19T02:03:39.222Z,64.10
2018-07-19T02:06:50.026Z,63.76
2018-07-19T02:09:53.725Z,64.34
2018-07-19T02:12:57.432Z,64.43
2018-07-19T02:16:03.265Z,65.45
2018-07-19T02:19:11.525Z,65.18
2018-07-19T02:22:17.917Z,65.31
2018-07-19T02:25:33.582Z,65.65
2018-07-19T02:28:41.989Z,66.20
2018-07-19T02:31:49.018Z,65.88
2018-07-19T02:35:05.326Z,65.92
2018-07-19T02:38:11.709Z,65.80
2018-07-19T02:41:20.959Z,66.33
2018-07-19T02:44:30.594Z,66.58
2018-07-19T02:50:53.625Z,67.43
2018-07-19T02:53:59.082Z,67.31
2018-07-19T02:57:12.461Z,67.81
2018-07-19T03:00:26.827Z,67.16
2018-07-19T03:03:43.381Z,67.00
2018-07-19T03:06:57.477Z,65.85
2018-07-19T03:13:33.188Z,67.56
2018-07-19T03:16:39.801Z,67.53
2018-07-19T03:19:56.823Z,68.15
2018-07-19T03:23:18.649Z,68.52
2018-07-19T03:26:30.932Z,67.50
2018-07-19T03:29:53.768Z,68.62
2018-07-19T03:38:21.622Z,68.93
2018-07-19T03:41:26.166Z,68.16
2018-07-19T03:51:52.391Z,69.72
2018-07-19T04:01:52.166Z,70.71
2018-07-19T04:15:42.639Z,70.52
2018-07-19T04:19:06.455Z,69.85
2018-07-19T04:22:14.401Z,71.06
2018-07-19T04:25:22.691Z,70.17
2018-07-19T04:28:32.502Z,70.15
2018-07-19T04:31:37.848Z,69.74
2018-07-19T04:34:45.746Z,70.52
2018-07-19T04:37:55.568Z,70.45
2018-07-19T04:41:00.568Z,71.54
2018-07-19T04:44:11.952Z,70.75
2018-07-19T04:47:18.981Z,71.22
2018-07-19T04:50:29.876Z,71.16
2018-07-19T04:53:34.341Z,71.72
2018-07-19T04:56:49.204Z,72.76
2018-07-19T05:00:03.368Z,71.20
2018-07-19T05:03:17.710Z,71.46
2018-07-19T05:06:29.725Z,71.27
2018-07-19T05:09:58.868Z,71.96
2018-07-19T05:13:19.935Z,71.64
2018-07-19T05:16:31.722Z,71.84
2018-07-19T05:19:41.305Z,71.73
2018-07-19T05:22:51.231Z,71.35
2018-07-19T05:25:57.857Z,71.44
2018-07-19T05:29:11.546Z,71.71
2018-07-19T05:32:36.289Z,71.63
2018-07-19T05:35:55.419Z,71.15
2018-07-19T05:42:36.915Z,71.10
2018-07-19T05:45:52.381Z,71.79
2018-07-19T05:48:58.375Z,71.73
2018-07-19T05:52:03.971Z,70.84
2018-07-19T05:55:16.076Z,71.47
2018-07-19T05:58:31.716Z,71.14
2018-07-19T06:05:03.575Z,70.73
2018-07-19T06:08:11.019Z,71.21
2018-07-19T06:11:16.177Z,70.89
2018-07-19T06:15:34.512Z,71.57
2018-07-19T06:18:41.405Z,71.40
2018-07-19T06:21:50.945Z,71.29
2018-07-19T06:28:12.756Z,70.88
2018-07-19T06:31:22.557Z,70.72
2018-07-19T06:34:34.811Z,71.21
2018-07-19T06:37:45.004Z,71.28
2018-07-19T06:40:53.255Z,70.69
2018-07-19T06:44:03.808Z,70.85
2018-07-19T06:47:17.244Z,70.84
2018-07-19T06:50:28.713Z,70.89
2018-07-19T06:53:35.796Z,70.92
2018-07-19T06:56:44.193Z,70.45
2018-07-19T06:59:53.968Z,69.78
2018-07-19T07:03:03.098Z,70.34
2018-07-19T07:06:17.543Z,70.66
2018-07-19T07:09:22.377Z,71.19
2018-07-19T07:12:33.004Z,70.63
2018-07-19T07:15:44.424Z,70.41
2018-07-19T07:18:57.358Z,70.28
2018-07-19T07:22:05.047Z,70.10
2018-07-19T07:25:09.761Z,70.06
2018-07-19T07:28:16.059Z,70.48
2018-07-19T07:31:21.140Z,70.73
2018-07-19T07:34:26.203Z,70.66
2018-07-19T07:37:30.089Z,70.76
2018-07-19T07:40:34.455Z,71.12
2018-07-19T07:43:40.706Z,69.99
2018-07-19T07:46:50.495Z,70.54
2018-07-19T07:49:56.125Z,70.46
2018-07-19T07:53:02.200Z,70.83
2018-07-19T07:56:08.338Z,70.99
2018-07-19T07:59:12.903Z,70.58
2018-07-19T08:02:22.569Z,70.67
2018-07-19T08:05:39.830Z,70.91
2018-07-19T08:08:46.104Z,71.47
2018-07-19T08:11:53.596Z,71.19
2018-07-19T08:15:01.345Z,71.82
2018-07-19T08:18:17.128Z,72.55
2018-07-19T08:21:36.120Z,72.31
2018-07-19T08:28:21.842Z,74.49
2018-07-19T08:31:37.511Z,74.91
2018-07-19T08:35:04.765Z,74.28
2018-07-19T08:41:48.351Z,73.40
2018-07-19T08:44:53.556Z,72.98
2018-07-19T08:48:02.929Z,73.12
2018-07-19T08:51:14.344Z,75.05
2018-07-19T08:54:23.902Z,75.21
2018-07-19T08:57:29.176Z,74.60
2018-07-19T09:00:37.137Z,73.02
2018-07-19T09:03:41.467Z,72.97
2018-07-19T09:06:47.049Z,72.33
2018-07-19T09:09:50.613Z,71.68
2018-07-19T09:12:57.739Z,71.39
2018-07-19T09:19:22.356Z,70.25
2018-07-19T09:22:27.527Z,70.15
2018-07-19T09:25:35.587Z,70.11
2018-07-19T09:28:43.180Z,70.15
2018-07-19T09:32:12.636Z,69.41
2018-07-19T09:35:17.477Z,69.22
2018-07-19T09:38:22.378Z,69.46
2018-07-19T09:41:31.954Z,68.92
2018-07-19T09:45:12.558Z,68.49
2018-07-19T09:48:16.270Z,68.23
2018-07-19T09:51:28.308Z,68.67
2018-07-19T09:54:47.353Z,67.59
2018-07-19T09:57:58.756Z,67.62
2018-07-19T10:01:11.658Z,67.34
2018-07-19T10:04:31.855Z,66.95
2018-07-19T10:07:53.004Z,66.63
2018-07-19T10:11:19.656Z,67.16
2018-07-19T10:14:26.444Z,67.36
2018-07-19T10:21:12.633Z,67.04
2018-07-19T10:24:23.313Z,66.98
2018-07-19T10:27:32.138Z,66.83
2018-07-19T10:30:37.449Z,68.48
2018-07-19T10:33:42.897Z,67.86
2018-07-19T10:36:48.553Z,67.59
2018-07-19T10:40:08.199Z,66.94
2018-07-19T10:43:11.807Z,66.54
2018-07-19T10:46:33.597Z,66.14
2018-07-19T10:49:39.592Z,65.86
2018-07-19T10:52:44.547Z,65.29
2018-07-19T10:55:57.067Z,65.93
2018-07-19T10:59:03.737Z,65.37
2018-07-19T11:02:11.751Z,65.58
2018-07-19T11:05:23.179Z,65.51
2018-07-19T11:11:50.282Z,65.70
2018-07-19T11:15:07.598Z,65.95
2018-07-19T11:18:40.295Z,65.70
2018-07-19T11:22:02.747Z,65.39
2018-07-19T11:25:20.652Z,65.23
2018-07-19T11:28:43.982Z,64.54
2018-07-19T11:31:59.453Z,64.48
2018-07-19T11:35:24.819Z,64.74
2018-07-19T11:38:57.552Z,64.95
2018-07-19T11:42:15.556Z,64.67
2018-07-19T11:45:37.227Z,63.88
2018-07-19T11:48:48.753Z,61.64
2018-07-19T11:52:11.374Z,62.60
2018-07-19T11:58:53.406Z,60.84
2018-07-19T12:02:05.831Z,60.48
2018-07-19T12:08:57.457Z,59.63
2018-07-19T12:15:35.008Z,59.63
2018-07-19T12:18:43.915Z,59.55
2018-07-19T12:25:31.859Z,57.80
2018-07-19T12:28:36.391Z,57.80
2018-07-19T12:31:50.184Z,57.76
2018-07-19T12:35:01.047Z,56.81
2018-07-19T12:38:06.403Z,57.08
2018-07-19T12:41:13.132Z,57.30
2018-07-19T12:44:19.497Z,56.45
2018-07-19T12:47:23.209Z,54.90
2018-07-19T12:50:34.153Z,55.66
2018-07-19T12:53:45.462Z,55.44
2018-07-19T12:56:52.665Z,55.02
2018-07-19T12:59:59.781Z,56.30
2018-07-19T13:03:08.508Z,56.20
2018-07-19T13:06:14.682Z,57.17
2018-07-19T13:09:28.205Z,56.56
2018-07-19T13:12:35.231Z,55.83
2018-07-19T13:15:44.809Z,55.16
2018-07-19T13:18:51.223Z,54.32
2018-07-19T13:22:05.019Z,55.25
2018-07-19T13:25:08.957Z,53.95
2018-07-19T13:28:15.647Z,54.34
2018-07-19T13:31:27.957Z,54.01
2018-07-19T13:34:31.410Z,54.16
2018-07-19T13:37:35.628Z,53.41
2018-07-19T13:40:39.868Z,54.34
2018-07-19T13:43:44.989Z,53.50
2018-07-19T13:46:53.760Z,53.74
2018-07-19T13:50:03.130Z,54.07
2018-07-19T13:53:30.824Z,53.25
2018-07-19T13:56:35.697Z,51.78
2018-07-19T13:59:42.897Z,51.02
2018-07-19T14:02:48.760Z,49.99
2018-07-19T14:06:00.406Z,49.50
2018-07-19T14:09:06.753Z,48.87
2018-07-19T14:12:10.203Z,46.64
2018-07-19T14:15:13.732Z,47.83
2018-07-19T14:18:17.340Z,46.13
2018-07-19T14:21:21.901Z,46.38
2018-07-19T14:24:25.543Z,47.35
2018-07-19T14:27:29.919Z,46.55
2018-07-19T14:30:36.229Z,45.23
2018-07-19T14:33:39.805Z,44.63
2018-07-19T14:36:45.829Z,44.61
2018-07-19T14:39:55.776Z,44.27
2018-07-19T14:43:00.026Z,44.86
2018-07-19T14:46:09.344Z,45.46
2018-07-19T14:49:12.988Z,45.59
2018-07-19T14:52:19.770Z,46.06
2018-07-19T14:55:24.840Z,45.79
2018-07-19T14:58:32.952Z,45.95
2018-07-19T15:01:51.793Z,46.29
2018-07-19T15:05:00.117Z,45.62
2018-07-19T15:08:06.235Z,46.45
2018-07-19T15:11:19.435Z,46.10
2018-07-19T15:14:25.572Z,47.01
2018-07-19T15:21:02.395Z,45.58
2018-07-19T15:28:15.515Z,44.77
2018-07-19T15:31:39.431Z,46.65
2018-07-19T15:35:08.439Z,44.59
2018-07-19T16:06:34.444Z,43.43
2018-07-19T16:09:38.713Z,44.66
2018-07-19T16:14:02.103Z,44.68
2018-07-19T16:17:07.116Z,45.56
2018-07-19T16:20:12.219Z,45.33
2018-07-19T16:23:18.009Z,44.29
2018-07-19T16:26:22.571Z,44.67
2018-07-19T16:29:29.394Z,44.54
2018-07-19T16:35:58.499Z,44.62
2018-07-19T16:39:04.708Z,44.36
2018-07-19T16:42:08.421Z,44.27
2018-07-19T16:45:12.062Z,44.01
2018-07-19T16:48:17.838Z,43.49
2018-07-19T16:51:39.036Z,44.36
2018-07-19T16:54:45.600Z,43.34
2018-07-19T16:57:49.623Z,42.76
2018-07-19T17:00:56.970Z,43.11
2018-07-19T17:04:03.843Z,46.13
2018-07-19T17:07:09.680Z,44.09
2018-07-19T17:10:14.284Z,43.17
2018-07-19T17:13:20.983Z,42.39
2018-07-19T17:16:25.084Z,42.76
2018-07-19T17:19:29.148Z,42.75
2018-07-19T17:22:34.692Z,42.41
2018-07-19T17:25:38.467Z,42.89
2018-07-19T17:28:42.549Z,42.52
2018-07-19T17:31:48.986Z,43.61
2018-07-19T17:34:54.516Z,42.37
2018-07-19T17:38:08.418Z,43.51
2018-07-19T17:44:31.686Z,42.90
2018-07-19T17:47:36.187Z,43.87
2018-07-19T17:50:43.124Z,43.33
2018-07-19T17:53:53.876Z,44.02
2018-07-19T17:56:58.414Z,43.62
2018-07-19T18:00:02.953Z,44.32
2018-07-19T18:03:07.275Z,43.91
2018-07-19T18:06:10.894Z,44.13
2018-07-19T18:09:16.168Z,44.04
2018-07-19T18:12:19.950Z,44.70
2018-07-19T18:15:23.825Z,44.67
2018-07-19T18:18:33.945Z,44.50
2018-07-19T18:21:38.833Z,44.13
2018-07-19T18:24:43.575Z,44.22
2018-07-19T18:27:48.335Z,44.25
2018-07-19T18:30:53.169Z,44.64
2018-07-19T18:33:59.069Z,44.69
2018-07-19T18:37:02.853Z,44.52
2018-07-19T18:40:06.479Z,45.52
2018-07-19T18:43:10.366Z,44.67
2018-07-19T18:46:14.131Z,45.30
2018-07-19T18:49:18.691Z,45.16
2018-07-19T18:52:22.296Z,43.41
2018-07-19T18:55:27.172Z,44.60
2018-07-19T18:58:31.039Z,44.88
2018-07-19T19:01:36.253Z,44.13
2018-07-19T19:04:41.046Z,44.05
2018-07-19T19:07:44.896Z,44.71
2018-07-19T19:10:48.521Z,44.54
2018-07-19T19:13:52.446Z,44.77
2018-07-19T19:16:56.698Z,44.34
2018-07-19T19:20:01.873Z,43.61
2018-07-19T19:23:05.603Z,44.65
2018-07-19T19:26:10.517Z,44.97
2018-07-19T19:29:14.295Z,44.86
2018-07-19T19:32:19.432Z,45.01
2018-07-19T19:35:25.217Z,44.96
2018-07-19T19:38:31.226Z,45.64
2018-07-19T19:41:36.549Z,46.17
2018-07-19T19:44:47.506Z,45.26
2018-07-19T19:47:55.240Z,46.00
2018-07-19T19:50:58.851Z,45.48
2018-07-19T19:54:03.136Z,47.14
2018-07-19T19:57:07.007Z,47.33
2018-07-19T20:00:24.450Z,46.69
2018-07-19T20:03:29.237Z,47.30
2018-07-19T20:06:33.878Z,46.97
2018-07-19T20:09:40.065Z,46.08
2018-07-19T20:12:44.037Z,47.47
2018-07-19T20:15:48.771Z,47.98
2018-07-19T20:18:54.189Z,47.63
2018-07-19T20:21:57.829Z,47.31
2018-07-19T20:25:01.417Z,47.99
2018-07-19T20:31:08.664Z,48.52
2018-07-19T20:34:13.366Z,48.91
2018-07-19T20:37:17.021Z,49.38
2018-07-19T20:40:20.726Z,50.05
2018-07-19T20:43:25.349Z,49.98
2018-07-19T20:46:29.128Z,50.53
2018-07-19T20:49:33.651Z,51.24
2018-07-19T20:52:37.337Z,51.42
2018-07-19T20:55:42.148Z,51.83
2018-07-19T20:58:52.050Z,52.38
2018-07-19T21:01:56.659Z,52.47
2018-07-19T21:05:00.265Z,52.24
2018-07-19T21:08:04.380Z,52.81
2018-07-19T21:11:08.159Z,52.81
2018-07-19T21:14:12.102Z,52.68
2018-07-19T21:17:15.905Z,52.93
2018-07-19T21:20:19.506Z,53.52
2018-07-19T21:23:23.120Z,52.78
2018-07-19T21:26:27.950Z,53.12
2018-07-19T21:29:32.571Z,53.38
2018-07-19T21:32:36.232Z,53.10
2018-07-19T21:35:39.884Z,53.74
2018-07-19T21:38:44.615Z,53.59
2018-07-19T21:41:49.151Z,53.82
2018-07-19T21:44:52.800Z,54.53
2018-07-19T21:47:56.454Z,54.37
2018-07-19T21:51:00.157Z,55.47
2018-07-19T21:54:04.017Z,54.98
2018-07-19T21:57:08.552Z,53.96
2018-07-19T22:00:13.457Z,53.68
2018-07-19T22:03:18.265Z,54.18
2018-07-19T22:06:22.997Z,54.32
2018-07-19T22:09:35.070Z,53.67
2018-07-19T22:12:54.790Z,54.81
2018-07-19T22:16:00.116Z,54.58
2018-07-19T22:19:04.043Z,54.71
2018-07-19T22:22:07.746Z,54.52
2018-07-19T22:25:11.470Z,54.95
2018-07-19T22:28:18.557Z,55.43
2018-07-19T22:31:25.205Z,55.33
2018-07-19T22:34:29.527Z,55.37
2018-07-19T22:37:34.357Z,55.81
2018-07-19T22:44:16.803Z,55.42
2018-07-19T22:47:22.215Z,55.12
2018-07-19T22:50:27.639Z,55.89
2018-07-19T22:53:35.918Z,56.12
2018-07-19T22:57:05.089Z,56.37
2018-07-19T23:00:08.823Z,57.87
2018-07-19T23:03:36.070Z,57.98
2018-07-19T23:06:44.563Z,56.42
2018-07-19T23:09:48.764Z,56.73
2018-07-19T23:16:07.429Z,57.03
2018-07-19T23:19:13.045Z,58.21
2018-07-19T23:22:16.623Z,57.56
2018-07-19T23:25:21.149Z,57.28
2018-07-19T23:28:25.901Z,57.71
2018-07-19T23:31:31.761Z,58.55
2018-07-19T23:34:35.664Z,58.00
2018-07-19T23:37:40.740Z,58.06
2018-07-19T23:40:46.615Z,57.98
2018-07-19T23:43:54.768Z,58.89
2018-07-19T23:47:02.369Z,58.07
2018-07-19T23:50:06.163Z,58.69
2018-07-19T23:53:09.769Z,58.84
2018-07-19T23:56:14.412Z,58.56
2018-07-19T23:59:17.946Z,58.94
